Terminal Aerodrome Forecast
Issued by NWS Jackson, MS

Home | Current Version | Previous Version | Text Only | Print | Product List | Glossary On
Versions: 1 2 3 4 5 6 7 8 9 10 11 12 13
000
FTUS44 KMEG 230908 AAA
TAFTUP
TAF AMD
KTUP 230908Z 2309/2406 17010KT P6SM OVC014
     FM231000 16010KT P6SM VCSH OVC010
     FM231200 15012KT 3SM -RA BR VCTS BKN005 OVC090CB
     FM240300 19012G20KT P6SM VCSH OVC050=

USA.gov is the U.S. government's official web portal to all federal, state and local government web resources and services.